Time;durP1;ratioP1;P1;durP2;ratioP2;P2;SDS_P1;SDS_P2;PMS_P1;PMS_P2;Temp;Humidity;BMP_temperature;BMP_pressure;BME280_temperature;BME280_humidity;BME280_pressure;Samples;Min_cycle;Max_cycle;Signal;HPM_P1;HPM_P2
2022/07/16 00:03:01;;;;;;;0.15;0.15;;;16.20;99.90;;;;;;6117535;23;20100;-80
2022/07/16 00:05:27;;;;;;;0.10;0.10;;;16.40;99.90;;;;;;6129098;23;20026;-79
2022/07/16 00:07:54;;;;;;;0.10;0.10;;;16.30;99.90;;;;;;6210813;23;20050;-80
2022/07/16 00:10:20;;;;;;;0.20;0.20;;;16.30;99.90;;;;;;6184877;23;20433;-79
2022/07/16 00:12:46;;;;;;;0.20;0.20;;;16.20;99.90;;;;;;6184546;23;20070;-80
2022/07/16 00:15:11;;;;;;;0.13;0.13;;;16.30;99.90;;;;;;6183267;23;20016;-80
2022/07/16 00:17:40;;;;;;;0.10;0.10;;;16.40;99.90;;;;;;6185645;23;20461;-91
2022/07/16 00:20:07;;;;;;;0.20;0.20;;;16.30;99.90;;;;;;6219378;23;20035;-88
2022/07/16 00:22:35;;;;;;;0.10;0.10;;;16.20;99.90;;;;;;6191751;23;20013;-91
2022/07/16 00:25:05;;;;;;;0.10;0.10;;;16.30;99.90;;;;;;6215844;23;20024;-93
2022/07/16 00:27:33;;;;;;;0.10;0.10;;;16.30;99.90;;;;;;6214726;23;20016;-92
2022/07/16 00:29:59;;;;;;;0.10;0.10;;;16.30;99.90;;;;;;6188634;23;20446;-91
2022/07/16 00:32:24;;;;;;;0.10;0.10;;;16.30;99.90;;;;;;6192966;23;20062;-91
2022/07/16 00:34:50;;;;;;;0.10;0.10;;;16.30;99.90;;;;;;6195762;23;20055;-89
2022/07/16 00:37:16;;;;;;;0.20;0.20;;;16.30;99.90;;;;;;6205813;23;20072;-90
2022/07/16 00:39:41;;;;;;;0.10;0.10;;;16.30;99.90;;;;;;6194408;23;20444;-92
2022/07/16 00:42:07;;;;;;;0.17;0.17;;;16.60;99.90;;;;;;6191415;23;20468;-92
2022/07/16 00:44:35;;;;;;;0.20;0.20;;;16.30;99.90;;;;;;6217485;23;20414;-92
2022/07/16 00:47:01;;;;;;;0.10;0.10;;;16.20;99.90;;;;;;6216939;23;20020;-92
2022/07/16 00:49:27;;;;;;;0.20;0.20;;;16.20;99.90;;;;;;6189945;23;20096;-90
2022/07/16 00:51:58;;;;;;;0.20;0.20;;;16.20;99.90;;;;;;6215774;23;20076;-90
2022/07/16 00:54:23;;;;;;;0.10;0.10;;;16.10;99.90;;;;;;6214865;23;20275;-90
2022/07/16 00:56:49;;;;;;;0.10;0.10;;;16.20;99.90;;;;;;6216495;23;20021;-92
2022/07/16 00:59:15;;;;;;;0.20;0.20;;;16.10;99.90;;;;;;6214912;23;20016;-90
2022/07/16 01:01:41;;;;;;;0.15;0.15;;;16.00;99.90;;;;;;6214899;23;20036;-89
2022/07/16 01:04:10;;;;;;;0.20;0.20;;;16.10;99.90;;;;;;6186196;23;20028;-90
2022/07/16 01:06:36;;;;;;;0.20;0.20;;;16.10;99.90;;;;;;6187055;23;20020;-90
2022/07/16 01:09:02;;;;;;;0.10;0.10;;;16.10;99.90;;;;;;6212427;23;20453;-89
2022/07/16 01:11:30;;;;;;;0.20;0.20;;;16.00;99.90;;;;;;6186952;23;20070;-87
2022/07/16 01:54:19;;;;;;;0.15;0.15;;;16.00;99.90;;;;;;6033666;23;20090;-87
2022/07/16 02:01:48;;;;;;;;;;;;;;;;;;;;;
2022/07/16 02:34:29;;;;;;;0.20;0.20;;;15.40;99.90;;;;;;5986400;23;20082;-87
2022/07/16 02:37:14;;;;;;;;;;;15.40;99.90;;;;;;6020907;23;20035;-88
2022/07/16 02:55:28;;;;;;;;;;;;;;;;;;;;;
2022/07/16 02:58:34;;;;;;;0.20;0.20;;;15.10;99.90;;;;;;5976082;23;20029;-86
2022/07/16 03:09:02;;;;;;;0.20;0.20;;;15.00;99.90;;;;;;5838177;24;20091;-86
2022/07/16 03:12:03;;;;;;;0.20;0.20;;;15.00;99.90;;;;;;5817225;24;20016;-87
2022/07/16 03:53:13;;;;;;;0.10;0.10;;;14.60;99.90;;;;;;5873635;24;20028;-88
2022/07/16 04:02:52;;;;;;;0.10;0.10;;;14.70;99.90;;;;;;5821859;24;20026;-87
2022/07/16 04:05:30;;;;;;;0.20;0.20;;;14.70;99.90;;;;;;5823642;24;20010;-87
2022/07/16 04:16:08;;;;;;;0.15;0.15;;;14.40;99.90;;;;;;5793045;24;20015;-88
2022/07/16 04:18:34;;;;;;;0.20;0.20;;;14.50;99.90;;;;;;5773768;24;20023;-89
2022/07/16 04:21:09;;;;;;;0.20;0.20;;;14.60;99.90;;;;;;5794563;24;20015;-90
2022/07/16 04:23:37;;;;;;;0.10;0.10;;;15.00;99.90;;;;;;5776742;24;20012;-89
2022/07/16 04:26:56;;;;;;;0.13;0.13;;;15.60;99.90;;;;;;5849747;24;20028;-89
2022/07/16 05:10:27;;;;;;;;;;;;;;;;;;;;;
2022/07/16 05:17:01;;;;;;;0.10;0.10;;;15.10;99.90;;;;;;6012005;23;21939;-90
2022/07/16 05:19:35;;;;;;;0.10;0.10;;;15.00;99.90;;;;;;6029167;23;20027;-89
2022/07/16 05:22:55;;;;;;;0.20;0.20;;;15.00;99.90;;;;;;6042574;23;20019;-94
2022/07/16 05:25:27;;;;;;;0.20;0.20;;;15.10;99.90;;;;;;5996418;23;20031;-90
2022/07/16 05:28:24;;;;;;;0.10;0.10;;;15.70;99.90;;;;;;6080871;23;20108;-90
2022/07/16 05:51:59;;;;;;;0.20;0.20;;;14.60;99.90;;;;;;6184767;23;20025;-88
2022/07/16 05:54:25;;;;;;;0.20;0.20;;;15.80;99.90;;;;;;6183858;23;20377;-85
2022/07/16 05:57:38;;;;;;;0.10;0.10;;;15.50;99.90;;;;;;6210690;23;20016;-87
2022/07/16 06:00:10;;;;;;;0.10;0.10;;;15.00;99.90;;;;;;6135365;23;20024;-88
2022/07/16 06:02:37;;;;;;;0.20;0.20;;;14.70;99.90;;;;;;6184019;23;20088;-88
2022/07/16 06:05:34;;;;;;;;;;;;;;;;;;;;;
2022/07/16 06:12:05;;;;;;;0.10;0.10;;;15.00;99.90;;;;;;6062978;23;20083;-87
2022/07/16 06:17:22;;;;;;;0.20;0.20;;;15.00;99.90;;;;;;6184352;23;20092;-85
2022/07/16 06:19:47;;;;;;;0.10;0.10;;;15.00;99.90;;;;;;6185094;23;20024;-89
2022/07/16 06:22:22;;;;;;;0.20;0.20;;;15.90;99.90;;;;;;6119588;23;20060;-86
2022/07/16 06:24:54;;;;;;;0.20;0.20;;;15.30;99.90;;;;;;6180146;23;20017;-89
2022/07/16 06:31:01;;;;;;;0.13;0.13;;;15.20;99.90;;;;;;6195853;23;20016;-88
2022/07/16 06:34:06;;;;;;;0.20;0.20;;;16.00;99.90;;;;;;6180244;23;20272;-87
2022/07/16 06:36:54;;;;;;;0.20;0.20;;;15.40;99.90;;;;;;6184838;23;20450;-88
2022/07/16 06:42:43;;;;;;;0.10;0.10;;;15.40;99.90;;;;;;6137944;23;20060;-89
2022/07/16 06:45:27;;;;;;;0.20;0.20;;;15.30;99.90;;;;;;6183429;23;20048;-86
2022/07/16 06:47:53;;;;;;;0.10;0.10;;;15.50;99.90;;;;;;6184473;23;20021;-83
2022/07/16 06:50:34;;;;;;;0.15;0.15;;;15.90;99.90;;;;;;6158011;23;20033;-93
2022/07/16 06:53:02;;;;;;;0.20;0.20;;;15.50;99.90;;;;;;6156064;23;20151;-93
2022/07/16 06:55:50;;;;;;;0.10;0.10;;;15.50;99.90;;;;;;6157455;23;20077;-93
2022/07/16 07:02:16;;;;;;;0.13;0.13;;;15.50;99.90;;;;;;6136263;23;20029;-90
2022/07/16 07:04:43;;;;;;;0.10;0.10;;;15.70;99.90;;;;;;6160786;23;20090;-96
2022/07/16 07:08:05;;;;;;;0.20;0.20;;;15.90;99.90;;;;;;6157351;23;20809;-86
2022/07/16 07:14:36;;;;;;;0.20;0.20;;;15.30;99.90;;;;;;6153267;23;20052;-87
2022/07/16 07:17:10;;;;;;;0.10;0.10;;;15.90;99.90;;;;;;6156286;23;20024;-88
2022/07/16 07:19:36;;;;;;;0.20;0.20;;;15.90;99.90;;;;;;6135932;23;20029;-87
2022/07/16 07:22:05;;;;;;;0.10;0.10;;;16.70;99.90;;;;;;6158795;23;20016;-87
2022/07/16 07:24:33;;;;;;;0.20;0.20;;;15.90;99.90;;;;;;6127781;23;20021;-85
2022/07/16 07:27:08;;;;;;;0.20;0.20;;;15.90;99.90;;;;;;6154980;23;20473;-89
2022/07/16 07:29:34;;;;;;;0.20;0.20;;;16.20;99.90;;;;;;6125187;23;20450;-89
2022/07/16 07:31:59;;;;;;;0.10;0.10;;;16.00;99.90;;;;;;6150870;23;20111;-85
2022/07/16 07:34:25;;;;;;;0.20;0.20;;;16.10;99.90;;;;;;6147829;23;20092;-83
2022/07/16 07:36:51;;;;;;;0.10;0.10;;;16.70;99.90;;;;;;6122291;23;20482;-86
2022/07/16 07:39:19;;;;;;;0.20;0.20;;;16.20;99.90;;;;;;6149569;23;20056;-85
2022/07/16 07:41:45;;;;;;;0.10;0.10;;;16.90;99.90;;;;;;6123131;23;20346;-86
2022/07/16 07:44:19;;;;;;;0.10;0.10;;;16.40;99.90;;;;;;6151639;23;20018;-86
2022/07/16 07:46:53;;;;;;;0.10;0.10;;;16.40;99.90;;;;;;6150954;23;20320;-83
2022/07/16 07:49:34;;;;;;;0.20;0.20;;;16.40;99.90;;;;;;6147851;23;20063;-87
2022/07/16 07:52:00;;;;;;;0.20;0.20;;;16.40;99.90;;;;;;6149574;23;20028;-86
2022/07/16 07:54:25;;;;;;;0.10;0.10;;;16.40;99.90;;;;;;6148134;23;20013;-84
2022/07/16 07:56:51;;;;;;;0.20;0.20;;;16.50;99.90;;;;;;6123275;23;20021;-84
2022/07/16 07:59:22;;;;;;;0.20;0.20;;;16.40;99.90;;;;;;6164635;23;20040;-82
2022/07/16 08:01:48;;;;;;;0.20;0.20;;;16.40;99.90;;;;;;6150994;23;20016;-84
2022/07/16 08:04:36;;;;;;;0.10;0.10;;;16.40;99.90;;;;;;6123408;23;20025;-84
2022/07/16 08:07:05;;;;;;;0.10;0.10;;;16.40;99.90;;;;;;6123700;23;20022;-86
2022/07/16 08:09:31;;;;;;;0.10;0.10;;;16.50;99.90;;;;;;6179085;23;20024;-84
2022/07/16 08:11:57;;;;;;;0.10;0.10;;;16.50;99.90;;;;;;6154360;23;20017;-84
2022/07/16 08:14:22;;;;;;;0.15;0.15;;;16.50;99.90;;;;;;6153050;23;20486;-85
2022/07/16 08:16:48;;;;;;;0.20;0.20;;;16.60;99.90;;;;;;6154753;23;20097;-86
2022/07/16 08:19:14;;;;;;;0.20;0.20;;;17.10;99.90;;;;;;6180248;23;20350;-86
2022/07/16 08:21:43;;;;;;;0.20;0.20;;;16.80;99.90;;;;;;6181778;23;20278;-86
2022/07/16 08:26:52;;;;;;;0.20;0.20;;;16.70;99.90;;;;;;6183454;23;20175;-84
2022/07/16 08:29:24;;;;;;;0.10;0.10;;;16.80;99.90;;;;;;6178447;23;20060;-84
2022/07/16 08:31:50;;;;;;;0.10;0.10;;;16.50;99.90;;;;;;6181629;23;20322;-86
2022/07/16 08:34:16;;;;;;;0.13;0.13;;;16.80;99.90;;;;;;6179104;23;20013;-86
2022/07/16 08:36:44;;;;;;;0.20;0.20;;;17.10;99.90;;;;;;6179805;23;20450;-83
2022/07/16 08:39:10;;;;;;;0.20;0.20;;;16.80;99.90;;;;;;6190170;23;20061;-84
2022/07/16 08:41:39;;;;;;;0.20;0.20;;;16.80;99.90;;;;;;6185358;23;20009;-85
2022/07/16 08:44:08;;;;;;;0.10;0.10;;;16.80;99.90;;;;;;6180530;23;20017;-83
2022/07/16 08:46:34;;;;;;;0.20;0.20;;;16.80;99.90;;;;;;6155786;23;20021;-86
2022/07/16 08:48:59;;;;;;;0.10;0.10;;;16.80;99.90;;;;;;6154182;23;20013;-85
2022/07/16 08:51:46;;;;;;;0.10;0.10;;;16.80;99.90;;;;;;6180274;23;20114;-83
2022/07/16 08:54:18;;;;;;;0.20;0.20;;;16.90;99.90;;;;;;6181701;23;20415;-83
2022/07/16 08:56:49;;;;;;;0.10;0.10;;;16.90;99.90;;;;;;6155736;23;20021;-84
2022/07/16 08:59:52;;;;;;;0.10;0.10;;;16.80;99.90;;;;;;6150310;23;20036;-84
2022/07/16 09:02:34;;;;;;;0.20;0.20;;;16.80;99.90;;;;;;6182523;23;20013;-84
2022/07/16 09:05:07;;;;;;;0.20;0.20;;;16.80;99.90;;;;;;6180799;23;20500;-88
2022/07/16 09:07:33;;;;;;;0.20;0.20;;;16.90;99.90;;;;;;6154286;23;20087;-83
2022/07/16 09:09:59;;;;;;;0.20;0.20;;;16.90;99.90;;;;;;6180545;23;20032;-85
2022/07/16 09:12:51;;;;;;;0.20;0.20;;;17.00;99.90;;;;;;6153946;23;20017;-82
2022/07/16 09:15:34;;;;;;;0.20;0.20;;;17.00;99.90;;;;;;6131025;23;20033;-86
2022/07/16 09:18:20;;;;;;;0.10;0.10;;;17.00;99.90;;;;;;6183766;23;20075;-85
2022/07/16 09:20:57;;;;;;;0.10;0.10;;;17.20;99.90;;;;;;6193264;23;20025;-84
2022/07/16 09:23:26;;;;;;;0.17;0.17;;;16.90;99.90;;;;;;6181891;23;20039;-85
2022/07/16 09:26:06;;;;;;;0.20;0.20;;;17.00;99.90;;;;;;6181383;23;20063;-85
2022/07/16 09:28:38;;;;;;;0.10;0.10;;;17.10;99.90;;;;;;6154130;23;20024;-84
2022/07/16 09:31:04;;;;;;;0.10;0.10;;;17.20;99.90;;;;;;6182591;23;20492;-84
2022/07/16 09:33:30;;;;;;;0.20;0.20;;;17.20;99.90;;;;;;6153711;23;20013;-83
2022/07/16 09:36:11;;;;;;;0.20;0.20;;;17.30;99.90;;;;;;6181465;23;20342;-85
2022/07/16 09:38:51;;;;;;;0.20;0.20;;;17.30;99.90;;;;;;6154126;23;20017;-83
2022/07/16 09:41:18;;;;;;;0.20;0.20;;;17.30;99.90;;;;;;6155139;23;20041;-84
2022/07/16 09:43:44;;;;;;;0.10;0.10;;;17.30;99.90;;;;;;6180722;23;20025;-83
2022/07/16 09:46:19;;;;;;;0.20;0.20;;;17.30;99.90;;;;;;6155054;23;20552;-83
2022/07/16 09:48:49;;;;;;;0.20;0.20;;;17.40;99.90;;;;;;6180780;23;20320;-83
2022/07/16 09:51:26;;;;;;;0.20;0.20;;;17.30;99.90;;;;;;6182359;23;20009;-85
2022/07/16 09:53:53;;;;;;;0.20;0.20;;;17.40;99.90;;;;;;6156157;23;20021;-80
2022/07/16 09:56:22;;;;;;;0.10;0.10;;;17.40;99.90;;;;;;6182659;23;20017;-82
2022/07/16 09:58:50;;;;;;;0.10;0.10;;;17.50;99.90;;;;;;6158600;23;20096;-81
2022/07/16 10:01:16;;;;;;;0.20;0.20;;;17.60;99.90;;;;;;6182439;23;20290;-80
2022/07/16 10:03:44;;;;;;;0.20;0.20;;;17.70;99.90;;;;;;6182537;23;20017;-85
2022/07/16 10:06:10;;;;;;;0.10;0.10;;;17.70;99.90;;;;;;6181871;23;20336;-82
2022/07/16 10:08:39;;;;;;;0.20;0.20;;;17.70;99.90;;;;;;6164566;23;20075;-85
2022/07/16 10:11:05;;;;;;;0.10;0.10;;;17.70;99.90;;;;;;6182192;23;20120;-81
2022/07/16 10:13:33;;;;;;;0.10;0.10;;;17.70;99.90;;;;;;6178101;23;20021;-81
2022/07/16 10:15:58;;;;;;;0.20;0.20;;;17.70;99.90;;;;;;6178353;23;20422;-81
2022/07/16 10:18:57;;;;;;;0.20;0.20;;;17.70;99.90;;;;;;6179248;23;20124;-81
2022/07/16 10:21:23;;;;;;;0.20;0.20;;;17.70;99.90;;;;;;6179517;23;20093;-81
2022/07/16 10:24:06;;;;;;;0.20;0.20;;;17.90;99.90;;;;;;6179641;23;20103;-81
2022/07/16 10:26:33;;;;;;;0.20;0.20;;;17.80;99.90;;;;;;6181478;23;20013;-84
2022/07/16 10:28:59;;;;;;;0.20;0.20;;;17.80;99.90;;;;;;6177384;23;20021;-82
2022/07/16 10:34:32;;;;;;;0.15;0.15;;;17.90;99.90;;;;;;6181141;23;20143;-82
2022/07/16 10:36:58;;;;;;;0.20;0.20;;;17.90;99.90;;;;;;6178546;23;20027;-82
2022/07/16 10:39:25;;;;;;;0.10;0.10;;;18.00;99.90;;;;;;6178671;23;20021;-82
2022/07/16 10:42:00;;;;;;;0.20;0.20;;;18.10;99.90;;;;;;6181637;23;20581;-83
2022/07/16 10:44:47;;;;;;;0.20;0.20;;;18.10;99.90;;;;;;6176830;23;20017;-82
2022/07/16 10:47:14;;;;;;;0.10;0.10;;;18.20;99.90;;;;;;6178500;23;20024;-81
2022/07/16 10:49:40;;;;;;;0.20;0.20;;;18.20;99.90;;;;;;6180968;23;20021;-83
2022/07/16 10:52:14;;;;;;;0.20;0.20;;;18.30;99.90;;;;;;6178903;23;20017;-81
2022/07/16 10:54:58;;;;;;;0.20;0.20;;;18.30;99.90;;;;;;6179534;23;20783;-83
2022/07/16 10:57:35;;;;;;;0.10;0.10;;;18.40;99.90;;;;;;6177952;23;20032;-82
2022/07/16 11:00:03;;;;;;;0.13;0.13;;;18.50;99.90;;;;;;6179244;23;20067;-82
2022/07/16 11:02:37;;;;;;;0.20;0.20;;;18.50;99.90;;;;;;6180505;23;20013;-81
2022/07/16 11:05:04;;;;;;;0.20;0.20;;;18.40;99.90;;;;;;6179804;23;20480;-84
2022/07/16 11:07:33;;;;;;;0.20;0.20;;;18.40;99.90;;;;;;6180634;23;20013;-80
2022/07/16 11:09:59;;;;;;;0.20;0.20;;;18.40;99.90;;;;;;6179891;23;20056;-82
2022/07/16 11:12:27;;;;;;;0.10;0.10;;;18.40;99.90;;;;;;6179027;23;20345;-81
2022/07/16 11:14:55;;;;;;;0.20;0.20;;;18.40;99.90;;;;;;6178441;23;20075;-82
2022/07/16 11:17:23;;;;;;;0.20;0.20;;;18.40;99.90;;;;;;6178587;23;20075;-84
2022/07/16 11:19:52;;;;;;;0.20;0.20;;;18.40;99.90;;;;;;6157201;23;20021;-82
2022/07/16 11:22:22;;;;;;;0.13;0.13;;;18.60;99.90;;;;;;6152207;23;20024;-82
2022/07/16 11:24:52;;;;;;;0.20;0.20;;;18.70;99.90;;;;;;6152786;23;20096;-81
2022/07/16 11:27:17;;;;;;;0.10;0.10;;;19.10;99.90;;;;;;6177894;23;20017;-83
2022/07/16 11:29:43;;;;;;;0.20;0.20;;;18.80;99.90;;;;;;6151742;23;20017;-83
2022/07/16 11:32:14;;;;;;;0.10;0.10;;;18.90;99.90;;;;;;6179462;23;20052;-81
2022/07/16 11:34:40;;;;;;;0.20;0.20;;;19.00;99.90;;;;;;6177964;23;20088;-82
2022/07/16 11:37:05;;;;;;;0.20;0.20;;;19.00;99.90;;;;;;6152298;23;20056;-81
2022/07/16 11:39:31;;;;;;;0.10;0.10;;;19.10;99.90;;;;;;6152753;23;20021;-80
2022/07/16 11:41:58;;;;;;;0.20;0.20;;;19.30;99.70;;;;;;6181681;23;20341;-83
2022/07/16 11:44:29;;;;;;;0.20;0.20;;;19.20;99.30;;;;;;6154557;23;20028;-83
2022/07/16 11:46:57;;;;;;;0.20;0.20;;;19.10;99.40;;;;;;6180534;23;20021;-79
2022/07/16 11:49:31;;;;;;;0.20;0.20;;;19.10;98.80;;;;;;6181117;23;20060;-83
2022/07/16 11:52:02;;;;;;;0.13;0.13;;;19.00;98.10;;;;;;6155544;23;20067;-80
2022/07/16 11:54:29;;;;;;;0.20;0.20;;;18.90;98.60;;;;;;6153030;23;20450;-81
2022/07/16 11:56:59;;;;;;;0.20;0.20;;;18.90;98.50;;;;;;6182342;23;20513;-84
2022/07/16 11:59:30;;;;;;;0.20;0.20;;;18.80;98.00;;;;;;6184023;23;20044;-80
2022/07/16 12:02:08;;;;;;;0.20;0.20;;;19.00;97.90;;;;;;6156596;23;20017;-80
2022/07/16 12:04:45;;;;;;;0.20;0.20;;;19.00;98.20;;;;;;6182374;23;20017;-81
2022/07/16 12:07:15;;;;;;;0.17;0.17;;;19.00;97.80;;;;;;6154476;23;20432;-80
2022/07/16 12:09:47;;;;;;;0.20;0.20;;;19.00;97.70;;;;;;6174692;23;20063;-79
2022/07/16 12:12:21;;;;;;;0.10;0.10;;;18.90;97.70;;;;;;6179526;23;20112;-79
2022/07/16 12:14:50;;;;;;;0.20;0.20;;;18.90;97.50;;;;;;6179646;23;20347;-79
2022/07/16 12:17:28;;;;;;;0.20;0.20;;;18.90;98.30;;;;;;6180811;23;20665;-80
2022/07/16 12:20:28;;;;;;;0.20;0.20;;;18.90;98.30;;;;;;6179093;23;20021;-80
2022/07/16 12:23:05;;;;;;;0.20;0.20;;;18.90;98.10;;;;;;6179688;23;20023;-81
2022/07/16 12:25:34;;;;;;;0.10;0.10;;;19.00;99.00;;;;;;6179750;23;20013;-80
2022/07/16 12:28:10;;;;;;;0.13;0.13;;;19.00;98.70;;;;;;6179325;23;20073;-79
2022/07/16 12:30:37;;;;;;;0.20;0.20;;;19.20;99.30;;;;;;6178454;23;20300;-80
2022/07/16 12:33:05;;;;;;;0.10;0.10;;;19.40;98.60;;;;;;6177464;23;20049;-80
2022/07/16 12:35:35;;;;;;;0.15;0.15;;;19.50;98.40;;;;;;6177243;23;20025;-81
2022/07/16 12:38:02;;;;;;;0.20;0.20;;;19.60;98.70;;;;;;6181091;23;20039;-79
2022/07/16 12:40:31;;;;;;;0.20;0.20;;;19.80;98.80;;;;;;6182498;23;20088;-81
2022/07/16 12:42:58;;;;;;;0.10;0.10;;;20.10;98.30;;;;;;6179629;23;20016;-79
2022/07/16 12:45:27;;;;;;;0.10;0.10;;;20.10;97.50;;;;;;6181763;23;20141;-81
2022/07/16 12:47:53;;;;;;;0.10;0.10;;;20.10;98.00;;;;;;6179773;23;20115;-79
2022/07/16 12:50:18;;;;;;;0.20;0.20;;;20.20;97.60;;;;;;6178837;23;20470;-79
2022/07/16 12:52:44;;;;;;;0.20;0.20;;;20.20;96.40;;;;;;6178860;23;20298;-79
2022/07/16 13:00:39;;;;;;;0.10;0.10;;;20.30;96.70;;;;;;6180958;23;20025;-80
2022/07/16 13:03:05;;;;;;;0.20;0.20;;;20.30;96.90;;;;;;6179619;23;20060;-82
2022/07/16 13:05:31;;;;;;;0.20;0.20;;;20.40;96.90;;;;;;6177670;23;20083;-80
2022/07/16 13:07:59;;;;;;;0.17;0.17;;;20.40;96.10;;;;;;6179678;23;20491;-79
2022/07/16 13:10:25;;;;;;;0.20;0.20;;;20.30;95.40;;;;;;6179312;23;20377;-80
2022/07/16 13:13:09;;;;;;;0.20;0.20;;;20.40;95.90;;;;;;6178961;23;20092;-82
2022/07/16 13:15:34;;;;;;;0.10;0.10;;;20.20;95.30;;;;;;6180740;23;20017;-80
2022/07/16 13:18:02;;;;;;;0.10;0.10;;;20.30;95.60;;;;;;6180277;23;20383;-80
2022/07/16 13:20:28;;;;;;;0.20;0.20;;;20.40;96.00;;;;;;6159742;23;20428;-80
2022/07/16 13:22:54;;;;;;;0.20;0.20;;;20.50;96.10;;;;;;6180762;23;20013;-79
2022/07/16 13:25:19;;;;;;;0.15;0.15;;;20.60;96.40;;;;;;6179012;23;20092;-81
2022/07/16 13:27:45;;;;;;;0.10;0.10;;;20.80;96.60;;;;;;6154478;23;20458;-80
2022/07/16 13:30:11;;;;;;;0.20;0.20;;;20.90;96.30;;;;;;6152373;23;20474;-79
2022/07/16 13:32:36;;;;;;;0.15;0.15;;;21.00;95.70;;;;;;6177951;23;20017;-81
2022/07/16 13:35:02;;;;;;;0.10;0.10;;;21.10;95.40;;;;;;6153942;23;20627;-82
2022/07/16 13:37:28;;;;;;;0.17;0.17;;;21.10;95.60;;;;;;6152633;23;20017;-81
2022/07/16 13:39:53;;;;;;;0.20;0.20;;;21.10;95.60;;;;;;6152666;23;20512;-81
2022/07/16 13:42:28;;;;;;;0.20;0.20;;;21.10;95.50;;;;;;6152911;23;20473;-81
2022/07/16 13:44:54;;;;;;;0.20;0.20;;;21.10;95.20;;;;;;6151271;23;20021;-82
2022/07/16 13:47:19;;;;;;;0.20;0.20;;;21.20;95.20;;;;;;6151915;23;20395;-82
2022/07/16 13:49:45;;;;;;;0.10;0.10;;;21.50;95.90;;;;;;6154073;23;20015;-81
2022/07/16 13:52:11;;;;;;;0.10;0.10;;;21.60;96.50;;;;;;6180973;23;20088;-82
2022/07/16 13:54:37;;;;;;;0.10;0.10;;;21.70;98.00;;;;;;6180648;23;20055;-82
2022/07/16 13:58:13;;;;;;;0.15;0.15;;;21.70;94.90;;;;;;6156547;23;20017;-82
2022/07/16 13:59:51;;;;;;;0.20;0.20;;;21.70;95.00;;;;;;6179900;23;20032;-81
2022/07/16 14:02:17;;;;;;;0.20;0.20;;;21.70;95.00;;;;;;6181455;23;20017;-84
2022/07/16 14:04:43;;;;;;;0.20;0.20;;;21.60;94.20;;;;;;6181796;23;20023;-79
2022/07/16 14:07:08;;;;;;;0.20;0.20;;;21.50;94.00;;;;;;6182202;23;20020;-83
2022/07/16 14:09:37;;;;;;;0.15;0.15;;;21.50;94.20;;;;;;6180964;23;20437;-82
2022/07/16 14:12:03;;;;;;;0.20;0.20;;;21.30;93.40;;;;;;6181262;23;20079;-81
2022/07/16 14:14:29;;;;;;;0.20;0.20;;;21.10;93.80;;;;;;6152291;23;20349;-80
2022/07/16 14:17:05;;;;;;;0.20;0.20;;;20.90;93.90;;;;;;6182482;23;20013;-81
2022/07/16 14:19:31;;;;;;;0.20;0.20;;;20.60;94.10;;;;;;6182705;23;20146;-82
2022/07/16 14:21:56;;;;;;;0.10;0.10;;;20.70;94.80;;;;;;6153843;23;20021;-81
2022/07/16 14:24:23;;;;;;;0.20;0.20;;;20.70;95.50;;;;;;6181605;23;20037;-80
2022/07/16 14:26:49;;;;;;;0.20;0.20;;;20.70;95.00;;;;;;6183118;23;20013;-79
2022/07/16 14:56:47;;;;;;;0.20;0.20;;;20.80;95.50;;;;;;5082424;27;20772;-79
2022/07/16 14:59:13;;;;;;;0.20;0.20;;;21.30;94.60;;;;;;5071823;28;20048;-79
2022/07/16 15:01:39;;;;;;;0.20;0.20;;;21.10;94.50;;;;;;5084167;28;20102;-80
2022/07/16 15:04:05;;;;;;;0.20;0.20;;;21.00;94.80;;;;;;5076638;28;20522;-83
2022/07/16 15:06:32;;;;;;;0.20;0.20;;;21.20;96.20;;;;;;5072373;28;20060;-80
2022/07/16 15:08:58;;;;;;;0.20;0.20;;;21.20;96.40;;;;;;5076866;28;20525;-80
2022/07/16 15:11:24;;;;;;;0.20;0.20;;;21.50;96.50;;;;;;5065433;28;20048;-80
2022/07/16 15:13:49;;;;;;;0.20;0.20;;;22.00;97.00;;;;;;5072480;28;20063;-81
2022/07/16 15:16:15;;;;;;;0.20;0.20;;;22.40;96.40;;;;;;5081810;28;20547;-82
2022/07/16 15:18:41;;;;;;;0.20;0.20;;;22.80;95.50;;;;;;5077018;28;20037;-80
2022/07/16 15:21:09;;;;;;;0.20;0.20;;;23.20;97.50;;;;;;5077594;28;20048;-80
2022/07/16 15:23:35;;;;;;;0.20;0.20;;;24.30;98.90;;;;;;5066531;28;20123;-81
2022/07/16 15:26:01;;;;;;;0.20;0.20;;;25.70;99.00;;;;;;5072117;28;20563;-81
2022/07/16 15:28:26;;;;;;;0.20;0.20;;;26.80;96.10;;;;;;5062330;28;20052;-81
2022/07/16 15:30:52;;;;;;;0.30;0.30;;;27.40;94.60;;;;;;5064708;28;20490;-82
2022/07/16 15:36:08;;;;;;;0.20;0.20;;;27.10;91.00;;;;;;5080865;28;20498;-81
2022/07/16 15:38:35;;;;;;;0.20;0.20;;;26.90;91.30;;;;;;5083065;28;20040;-81
2022/07/16 15:41:02;;;;;;;0.20;0.20;;;27.80;94.40;;;;;;5075759;28;20515;-81
2022/07/16 15:43:28;;;;;;;0.20;0.20;;;29.40;93.90;;;;;;5065586;28;20049;-81
2022/07/16 15:45:57;;;;;;;0.20;0.20;;;30.50;91.90;;;;;;5067814;28;20124;-82
2022/07/16 15:48:22;;;;;;;0.20;0.20;;;32.00;91.70;;;;;;5076480;28;20049;-82
2022/07/16 15:50:48;;;;;;;0.40;0.40;;;33.60;90.00;;;;;;5084598;28;20036;-82
2022/07/16 15:53:14;;;;;;;0.30;0.30;;;34.50;80.90;;;;;;5072923;28;20439;-81
2022/07/16 15:55:39;;;;;;;0.30;0.30;;;35.20;79.50;;;;;;5081321;28;20054;-82
2022/07/16 15:58:05;;;;;;;0.30;0.30;;;36.20;76.60;;;;;;5068906;28;20037;-80
2022/07/16 16:00:31;;;;;;;0.30;0.30;;;38.00;71.60;;;;;;5061867;28;20472;-80
2022/07/16 16:02:57;;;;;;;0.30;0.30;;;38.40;71.10;;;;;;5055543;28;20128;-80
2022/07/16 16:05:23;;;;;;;0.30;0.30;;;39.20;65.50;;;;;;5080653;28;20151;-81
2022/07/16 16:07:49;;;;;;;0.30;0.30;;;39.50;65.20;;;;;;5069258;28;20044;-81
2022/07/16 16:10:15;;;;;;;0.30;0.30;;;40.10;62.50;;;;;;5063089;28;20536;-79
2022/07/16 16:12:42;;;;;;;0.30;0.30;;;40.00;59.00;;;;;;5057641;28;20023;-81
2022/07/16 16:15:15;;;;;;;0.30;0.30;;;39.10;56.40;;;;;;5063226;28;20227;-80
2022/07/16 16:17:41;;;;;;;0.30;0.30;;;37.60;53.90;;;;;;5060007;28;20060;-80
2022/07/16 16:20:08;;;;;;;0.30;0.30;;;35.80;53.40;;;;;;5065496;28;20052;-80
2022/07/16 16:22:34;;;;;;;0.30;0.30;;;34.10;53.50;;;;;;5055529;28;20087;-78
2022/07/16 16:25:05;;;;;;;0.20;0.20;;;32.40;54.80;;;;;;5054831;28;20566;-79
2022/07/16 16:27:30;;;;;;;0.20;0.20;;;31.10;55.40;;;;;;5060400;28;20107;-79
2022/07/16 16:29:56;;;;;;;0.20;0.20;;;29.80;57.20;;;;;;5070979;28;20053;-78
2022/07/16 16:32:23;;;;;;;0.30;0.30;;;28.80;57.60;;;;;;5062994;28;20124;-80
2022/07/16 16:34:49;;;;;;;0.22;0.22;;;27.80;58.00;;;;;;5063026;28;20084;-84
2022/07/16 16:37:15;;;;;;;0.20;0.20;;;27.00;58.70;;;;;;5055671;28;20068;-86
2022/07/16 16:39:41;;;;;;;0.20;0.20;;;26.20;59.70;;;;;;5052457;28;20045;-87
2022/07/16 16:42:13;;;;;;;0.20;0.20;;;25.60;60.60;;;;;;5055241;28;20048;-85
2022/07/16 16:44:38;;;;;;;0.20;0.20;;;25.20;61.30;;;;;;5064345;28;20052;-85
2022/07/16 16:47:05;;;;;;;0.20;0.20;;;24.80;62.10;;;;;;5067841;28;20035;-86
2022/07/16 16:49:31;;;;;;;0.30;0.30;;;24.40;62.20;;;;;;5058652;28;20029;-85
2022/07/16 16:51:57;;;;;;;0.30;0.30;;;24.00;62.70;;;;;;5063000;28;20060;-87
2022/07/16 16:54:22;;;;;;;0.30;0.30;;;23.50;63.50;;;;;;5051799;28;20178;-86
2022/07/16 16:56:48;;;;;;;0.30;0.30;;;23.20;63.90;;;;;;5067055;28;20488;-84
2022/07/16 16:59:14;;;;;;;0.25;0.25;;;22.80;64.30;;;;;;5055120;28;20041;-86
2022/07/16 17:01:42;;;;;;;0.30;0.30;;;22.50;65.00;;;;;;5066795;28;20041;-85
2022/07/16 17:04:08;;;;;;;0.30;0.30;;;22.20;64.70;;;;;;5057640;28;21942;-87
2022/07/16 17:06:34;;;;;;;0.20;0.20;;;21.80;65.80;;;;;;5061895;28;20041;-87
2022/07/16 17:08:59;;;;;;;0.20;0.20;;;21.60;66.40;;;;;;5066525;28;20083;-83
2022/07/16 17:11:26;;;;;;;0.20;0.20;;;21.30;66.80;;;;;;5069819;28;20040;-86
2022/07/16 17:13:52;;;;;;;0.20;0.20;;;21.20;67.50;;;;;;5065924;28;20129;-85
2022/07/16 17:16:18;;;;;;;0.20;0.20;;;21.10;68.30;;;;;;5072321;28;20187;-83
2022/07/16 17:18:43;;;;;;;0.30;0.30;;;21.20;70.60;;;;;;5069632;28;20400;-84
2022/07/16 17:21:09;;;;;;;0.30;0.30;;;22.10;69.70;;;;;;5049839;28;20205;-84
2022/07/16 17:23:35;;;;;;;0.25;0.25;;;22.50;67.20;;;;;;5058970;28;20033;-85
2022/07/16 17:26:01;;;;;;;0.20;0.20;;;22.30;67.60;;;;;;5058803;28;20052;-82
2022/07/16 17:28:27;;;;;;;0.20;0.20;;;22.20;67.80;;;;;;5057219;28;20139;-85
2022/07/16 17:30:52;;;;;;;0.20;0.20;;;22.00;67.80;;;;;;5060677;28;20590;-85
2022/07/16 17:33:20;;;;;;;0.20;0.20;;;21.90;67.70;;;;;;5066679;28;20041;-85
2022/07/16 17:35:46;;;;;;;0.20;0.20;;;21.70;67.40;;;;;;5058688;28;20061;-85
2022/07/16 17:38:15;;;;;;;0.20;0.20;;;21.50;68.10;;;;;;5063710;28;20045;-85
2022/07/16 17:40:41;;;;;;;0.20;0.20;;;21.50;69.20;;;;;;5063732;28;20041;-86
2022/07/16 17:43:07;;;;;;;0.20;0.20;;;21.20;68.60;;;;;;5052342;28;20143;-84
2022/07/16 17:45:33;;;;;;;0.20;0.20;;;21.10;68.90;;;;;;5065307;28;20044;-86
2022/07/16 17:47:59;;;;;;;0.20;0.20;;;20.90;68.80;;;;;;5064553;28;20043;-86
2022/07/16 17:50:25;;;;;;;0.20;0.20;;;20.60;69.50;;;;;;5059643;28;21102;-86